createdAt,value
2022-08-08T00:00:52.903Z,4.33
2022-08-08T00:02:43.674Z,2.67
2022-08-08T00:05:17.469Z,3.00
2022-08-08T00:07:49.532Z,3.33
2022-08-08T00:10:28.189Z,3.00
2022-08-08T00:12:59.278Z,3.33
2022-08-08T00:15:56.413Z,4.00
2022-08-08T00:18:19.059Z,4.00
2022-08-08T00:20:50.801Z,3.33
2022-08-08T00:23:23.592Z,3.33
2022-08-08T00:25:58.421Z,4.00
2022-08-08T00:28:35.286Z,4.00
2022-08-08T00:32:21.454Z,3.50
2022-08-08T00:34:19.964Z,4.50
2022-08-08T00:36:51.569Z,4.50
2022-08-08T00:40:43.824Z,4.00
2022-08-08T00:42:36.815Z,4.75
2022-08-08T00:45:29.495Z,4.25
2022-08-08T00:48:30.643Z,3.75
2022-08-08T00:51:38.307Z,4.25
2022-08-08T00:54:34.478Z,4.50
2022-08-08T00:57:34.638Z,3.67
2022-08-08T01:00:08.675Z,3.75
2022-08-08T01:04:00.713Z,5.00
2022-08-08T01:06:38.116Z,4.50
2022-08-08T01:09:36.884Z,4.25
2022-08-08T01:12:29.773Z,3.75
2022-08-08T01:15:37.005Z,4.00
2022-08-08T01:18:53.686Z,4.75
2022-08-08T01:22:12.552Z,4.25
2022-08-08T01:24:54.420Z,5.33
2022-08-08T01:28:00.154Z,6.50
2022-08-08T01:32:02.716Z,5.00
2022-08-08T01:34:39.618Z,5.50
2022-08-08T01:37:57.356Z,5.00
2022-08-08T01:40:44.129Z,5.33
2022-08-08T01:43:22.882Z,5.75
2022-08-08T01:45:56.483Z,6.00
2022-08-08T01:48:36.006Z,6.00
2022-08-08T01:51:32.037Z,6.00
2022-08-08T01:55:26.666Z,5.00
2022-08-08T01:57:07.236Z,5.00
2022-08-08T02:00:01.911Z,6.75
2022-08-08T02:03:00.308Z,6.75
2022-08-08T02:05:33.998Z,8.00
2022-08-08T02:08:26.674Z,5.75
2022-08-08T02:11:23.162Z,7.00
2022-08-08T02:13:55.556Z,5.75
2022-08-08T02:16:38.867Z,4.00
2022-08-08T02:19:41.509Z,6.00
2022-08-08T02:22:20.993Z,6.50
2022-08-08T02:25:01.073Z,6.75
2022-08-08T02:27:42.577Z,7.00
2022-08-08T02:30:24.783Z,5.00
2022-08-08T02:33:15.322Z,6.50
2022-08-08T02:36:04.834Z,6.75
2022-08-08T02:38:49.196Z,7.50
2022-08-08T02:42:04.089Z,7.00
2022-08-08T02:44:58.741Z,7.00
2022-08-08T02:48:02.417Z,6.75
2022-08-08T02:50:55.493Z,7.50
2022-08-08T02:53:47.274Z,6.50
2022-08-08T02:56:41.812Z,6.25
2022-08-08T02:59:55.580Z,6.25
2022-08-08T03:02:36.428Z,2.75
2022-08-08T03:05:32.818Z,5.50
2022-08-08T03:08:37.248Z,7.00
2022-08-08T03:11:59.815Z,8.50
2022-08-08T03:15:57.990Z,4.25
2022-08-08T03:18:00.142Z,6.50
2022-08-08T03:20:47.070Z,8.00
2022-08-08T03:23:23.841Z,7.00
2022-08-08T03:25:57.982Z,8.50
2022-08-08T03:28:31.818Z,7.75
2022-08-08T03:31:07.914Z,7.75
2022-08-08T03:33:54.795Z,6.75
2022-08-08T03:36:27.533Z,7.75
2022-08-08T03:39:14.396Z,8.25
2022-08-08T03:42:12.897Z,7.75
2022-08-08T03:44:34.611Z,7.25
2022-08-08T03:47:19.182Z,8.00
2022-08-08T03:49:58.520Z,8.75
2022-08-08T03:52:31.747Z,6.75
2022-08-08T03:55:09.565Z,7.25
2022-08-08T03:58:34.565Z,8.25
2022-08-08T04:00:27.409Z,8.00
2022-08-08T04:03:04.778Z,8.00
2022-08-08T04:05:39.927Z,7.50
2022-08-08T04:08:33.171Z,7.00
2022-08-08T04:11:11.182Z,8.00
2022-08-08T04:14:33.225Z,9.25
2022-08-08T04:16:40.520Z,7.00
2022-08-08T04:19:24.981Z,8.25
2022-08-08T04:21:58.397Z,7.25
2022-08-08T04:24:28.664Z,7.00
2022-08-08T04:26:59.079Z,6.25
2022-08-08T04:29:33.377Z,7.25
2022-08-08T04:32:07.236Z,8.50
2022-08-08T04:34:55.906Z,7.00
2022-08-08T04:37:31.771Z,7.75
2022-08-08T04:40:07.978Z,7.00
2022-08-08T04:42:56.732Z,7.00
2022-08-08T04:45:28.568Z,8.00
2022-08-08T04:48:00.212Z,6.50
2022-08-08T04:50:38.199Z,6.75
2022-08-08T04:53:52.597Z,6.00
2022-08-08T04:55:57.111Z,7.00
2022-08-08T04:58:29.766Z,7.25
2022-08-08T05:00:57.904Z,6.25
2022-08-08T05:04:10.825Z,6.50
2022-08-08T05:06:25.806Z,5.00
2022-08-08T05:08:56.265Z,6.00
2022-08-08T05:11:38.614Z,5.33
2022-08-08T05:14:12.327Z,5.75
2022-08-08T05:16:50.860Z,5.67
2022-08-08T05:20:12.631Z,6.67
2022-08-08T05:22:18.094Z,5.00
2022-08-08T05:24:49.393Z,4.25
2022-08-08T05:27:19.790Z,5.25
2022-08-08T05:29:52.110Z,4.75
2022-08-08T05:32:24.515Z,5.25
2022-08-08T05:34:55.027Z,6.00
2022-08-08T05:37:28.382Z,6.00
2022-08-08T05:40:16.495Z,6.00
2022-08-08T05:42:49.089Z,6.00
2022-08-08T05:45:25.500Z,5.75
2022-08-08T05:48:01.180Z,5.75
2022-08-08T05:50:30.045Z,6.50
2022-08-08T05:53:53.941Z,6.00
2022-08-08T05:56:07.752Z,6.25
2022-08-08T05:58:37.452Z,5.75
2022-08-08T06:01:14.403Z,6.00
2022-08-08T06:04:08.421Z,6.50
2022-08-08T06:06:42.155Z,6.50
2022-08-08T06:09:59.842Z,5.50
2022-08-08T06:12:06.307Z,7.00
2022-08-08T06:14:34.827Z,6.50
2022-08-08T06:17:04.579Z,5.75
2022-08-08T06:19:47.292Z,4.25
2022-08-08T06:25:06.631Z,6.00
2022-08-08T06:27:46.155Z,6.75
2022-08-08T06:30:20.176Z,5.00
2022-08-08T06:33:01.369Z,5.75
2022-08-08T06:36:06.257Z,5.75
2022-08-08T06:38:20.448Z,6.50
2022-08-08T06:40:55.529Z,5.75
2022-08-08T06:43:30.649Z,7.00
2022-08-08T06:46:08.726Z,6.75
2022-08-08T06:48:38.927Z,6.50
2022-08-08T06:51:07.562Z,5.75
2022-08-08T06:53:39.498Z,5.50
2022-08-08T06:56:10.134Z,6.00
2022-08-08T06:58:40.031Z,6.00
2022-08-08T07:01:52.222Z,5.75
2022-08-08T07:04:38.022Z,6.75
2022-08-08T07:06:51.521Z,5.75
2022-08-08T07:09:21.551Z,5.75
2022-08-08T07:11:51.927Z,6.00
2022-08-08T07:14:25.387Z,6.00
2022-08-08T07:17:02.051Z,4.75
2022-08-08T07:19:36.968Z,5.00
2022-08-08T07:22:12.069Z,6.00
2022-08-08T07:24:52.957Z,6.50
2022-08-08T07:27:35.467Z,5.25
2022-08-08T07:30:16.122Z,5.50
2022-08-08T07:32:49.481Z,6.00
2022-08-08T07:35:18.877Z,5.50
2022-08-08T07:38:04.844Z,5.33
2022-08-08T07:40:50.538Z,5.00
2022-08-08T07:43:23.137Z,5.67
2022-08-08T07:46:18.091Z,5.50
2022-08-08T07:48:49.071Z,6.75
2022-08-08T07:51:23.942Z,5.75
2022-08-08T07:54:09.303Z,4.00
2022-08-08T07:56:45.042Z,5.50
2022-08-08T07:59:14.987Z,6.00
2022-08-08T08:02:34.549Z,5.50
2022-08-08T08:04:39.834Z,5.00
2022-08-08T08:07:10.881Z,5.75
2022-08-08T08:09:40.133Z,5.00
2022-08-08T08:12:26.576Z,6.00
2022-08-08T08:15:04.225Z,6.00
2022-08-08T08:17:47.473Z,5.50
2022-08-08T08:20:19.108Z,5.00
2022-08-08T08:22:49.807Z,5.00
2022-08-08T08:25:40.979Z,6.00
2022-08-08T08:28:09.140Z,5.00
2022-08-08T08:30:38.794Z,4.50
2022-08-08T08:33:06.956Z,5.75
2022-08-08T08:36:19.381Z,4.75
2022-08-08T08:38:27.988Z,5.00
2022-08-08T08:41:01.218Z,4.67
2022-08-08T08:43:35.569Z,5.00
2022-08-08T08:46:11.778Z,3.75
2022-08-08T08:48:47.507Z,5.00
2022-08-08T08:51:17.693Z,6.00
2022-08-08T08:53:59.360Z,5.25
2022-08-08T08:56:32.521Z,4.75
2022-08-08T08:59:09.083Z,6.25
2022-08-08T09:01:46.621Z,4.75
2022-08-08T09:04:31.474Z,5.75
2022-08-08T09:07:12.687Z,5.67
2022-08-08T09:09:48.255Z,5.00
2022-08-08T09:12:27.398Z,5.75
2022-08-08T09:14:56.343Z,4.75
2022-08-08T09:17:40.934Z,5.00
2022-08-08T09:22:00.313Z,4.50
2022-08-08T09:23:00.873Z,5.00
2022-08-08T09:25:36.071Z,5.00
2022-08-08T09:28:37.338Z,5.50
2022-08-08T09:31:12.611Z,3.75
2022-08-08T09:34:16.009Z,4.50
2022-08-08T09:36:28.069Z,4.75
2022-08-08T09:38:58.038Z,4.50
2022-08-08T09:42:13.849Z,4.00
2022-08-08T09:44:29.724Z,5.25
2022-08-08T09:47:05.645Z,4.25
2022-08-08T09:49:51.341Z,3.00
2022-08-08T09:52:58.349Z,4.67
2022-08-08T09:55:12.819Z,4.75
2022-08-08T09:57:55.856Z,3.75
2022-08-08T10:00:56.625Z,4.00
2022-08-08T10:03:13.138Z,4.25
2022-08-08T10:05:42.052Z,4.75
2022-08-08T10:08:14.336Z,4.25
2022-08-08T10:10:50.149Z,5.50
2022-08-08T10:13:26.014Z,4.75
2022-08-08T10:16:03.855Z,4.75
2022-08-08T10:18:33.257Z,4.00
2022-08-08T10:21:07.371Z,4.00
2022-08-08T10:23:44.173Z,4.50
2022-08-08T10:26:30.222Z,5.00
2022-08-08T10:29:04.075Z,2.75
2022-08-08T10:31:50.187Z,4.75
2022-08-08T10:34:21.274Z,4.00
2022-08-08T10:36:49.024Z,4.75
2022-08-08T10:39:18.838Z,4.75
2022-08-08T10:41:58.597Z,4.50
2022-08-08T10:44:45.807Z,3.75
2022-08-08T10:47:14.438Z,3.75
2022-08-08T10:50:01.580Z,4.75
2022-08-08T10:52:31.765Z,4.00
2022-08-08T10:55:05.201Z,4.75
2022-08-08T10:57:45.230Z,4.33
2022-08-08T11:00:22.978Z,3.75
2022-08-08T11:02:53.308Z,5.00
2022-08-08T11:05:22.816Z,4.75
2022-08-08T11:08:37.139Z,4.75
2022-08-08T11:10:39.348Z,4.75
2022-08-08T11:16:00.806Z,4.75
2022-08-08T11:18:35.486Z,3.75
2022-08-08T11:21:09.014Z,4.50
2022-08-08T11:23:37.644Z,4.00
2022-08-08T11:26:06.185Z,4.67
2022-08-08T11:28:35.395Z,4.33
2022-08-08T11:31:08.668Z,3.50
2022-08-08T11:33:53.277Z,4.50
2022-08-08T11:36:29.028Z,5.00
2022-08-08T11:38:56.858Z,4.75
2022-08-08T11:41:24.750Z,5.75
2022-08-08T11:43:52.529Z,5.00
2022-08-08T11:46:22.630Z,4.25
2022-08-08T11:48:51.972Z,4.75
2022-08-08T11:51:30.237Z,5.25
2022-08-08T11:54:26.963Z,4.50
2022-08-08T11:56:56.152Z,4.67
2022-08-08T11:59:58.655Z,4.67
2022-08-08T12:02:41.951Z,4.25
2022-08-08T12:05:12.269Z,4.67
2022-08-08T12:07:49.662Z,4.75
2022-08-08T12:10:20.014Z,4.75
2022-08-08T12:12:48.812Z,4.50
2022-08-08T12:15:26.830Z,4.75
2022-08-08T12:17:55.935Z,4.00
2022-08-08T12:20:23.437Z,5.50
2022-08-08T12:22:52.508Z,5.00
2022-08-08T12:25:21.494Z,7.50
2022-08-08T12:28:14.355Z,5.00
2022-08-08T12:30:48.149Z,6.00
2022-08-08T12:33:19.882Z,6.33
2022-08-08T12:35:52.194Z,6.67
2022-08-08T12:38:31.116Z,6.00
2022-08-08T12:41:05.783Z,8.33
2022-08-08T12:43:59.799Z,10.00
2022-08-08T12:46:28.753Z,11.75
2022-08-08T12:51:59.360Z,8.75
2022-08-08T12:54:29.963Z,13.00
2022-08-08T12:57:01.098Z,11.50
2022-08-08T12:59:44.565Z,12.00
2022-08-08T13:02:22.562Z,12.75
2022-08-08T13:04:57.919Z,13.00
2022-08-08T13:08:03.873Z,11.50
2022-08-08T13:10:22.019Z,11.00
2022-08-08T13:13:01.595Z,10.00
2022-08-08T13:15:33.684Z,11.00
2022-08-08T13:18:11.825Z,10.00
2022-08-08T13:20:46.044Z,9.00
2022-08-08T13:23:36.885Z,11.25
2022-08-08T13:26:14.290Z,8.50
2022-08-08T13:28:45.368Z,10.00
2022-08-08T13:31:16.112Z,9.00
2022-08-08T13:33:47.401Z,9.00
2022-08-08T13:36:26.157Z,8.50
2022-08-08T13:38:54.204Z,9.50
2022-08-08T13:41:22.042Z,11.50
2022-08-08T13:43:51.123Z,13.75
2022-08-08T13:46:26.399Z,14.00
2022-08-08T13:50:32.406Z,14.75
2022-08-08T13:51:57.013Z,16.25
2022-08-08T13:54:29.359Z,15.50
2022-08-08T13:57:03.010Z,13.25
2022-08-08T13:59:32.926Z,14.25
2022-08-08T14:02:07.469Z,17.25
2022-08-08T14:04:38.309Z,15.00
2022-08-08T14:07:22.429Z,15.25
2022-08-08T14:10:05.440Z,12.75
2022-08-08T14:12:39.164Z,13.75
2022-08-08T14:15:11.785Z,13.25
2022-08-08T14:17:59.153Z,12.75
2022-08-08T14:20:56.021Z,12.25
2022-08-08T14:24:03.988Z,10.50
2022-08-08T14:26:11.160Z,12.75
2022-08-08T14:28:40.036Z,10.50
2022-08-08T14:31:09.228Z,9.50
2022-08-08T14:33:37.108Z,10.50
2022-08-08T14:36:06.035Z,11.75
2022-08-08T14:38:53.056Z,10.75
2022-08-08T14:41:53.114Z,10.75
2022-08-08T14:44:21.239Z,9.25
2022-08-08T14:46:58.091Z,8.00
2022-08-08T14:49:37.746Z,9.67
2022-08-08T14:52:21.672Z,9.00
2022-08-08T14:54:50.654Z,9.00
2022-08-08T14:57:18.111Z,7.00
2022-08-08T14:59:50.893Z,7.67
2022-08-08T15:02:23.391Z,8.00
2022-08-08T15:04:53.488Z,7.67
2022-08-08T15:07:24.349Z,8.00
2022-08-08T15:10:11.492Z,8.00
2022-08-08T15:12:40.840Z,8.00
2022-08-08T15:15:09.901Z,7.25
2022-08-08T15:17:37.444Z,7.75
2022-08-08T15:20:08.391Z,8.00
2022-08-08T15:22:40.089Z,6.67
2022-08-08T15:25:17.621Z,7.67
2022-08-08T15:28:04.139Z,6.67
2022-08-08T15:30:43.961Z,6.00
2022-08-08T15:33:20.907Z,7.00
2022-08-08T15:36:00.770Z,7.00
2022-08-08T15:38:30.285Z,8.00
2022-08-08T15:40:59.711Z,7.00
2022-08-08T15:43:36.459Z,7.00
2022-08-08T15:46:05.506Z,6.25
2022-08-08T15:48:33.332Z,7.00
2022-08-08T15:51:06.381Z,6.25
2022-08-08T15:53:49.199Z,6.50
2022-08-08T15:56:19.767Z,8.00
2022-08-08T15:58:48.597Z,7.00
2022-08-08T16:01:16.761Z,7.00
2022-08-08T16:03:46.028Z,7.00
2022-08-08T16:06:27.656Z,7.00
2022-08-08T16:13:03.182Z,6.67
2022-08-08T16:13:05.370Z,7.00
2022-08-08T16:14:33.701Z,7.00
2022-08-08T16:17:01.369Z,6.25
2022-08-08T16:19:30.059Z,6.33
2022-08-08T16:21:57.563Z,6.00
2022-08-08T16:24:25.112Z,7.25
2022-08-08T16:26:53.866Z,6.00
2022-08-08T16:29:23.794Z,8.00
2022-08-08T16:32:08.299Z,6.00
2022-08-08T16:34:41.102Z,5.67
2022-08-08T16:37:08.559Z,6.00
2022-08-08T16:40:01.936Z,6.67
2022-08-08T16:42:27.498Z,5.67
2022-08-08T16:44:58.807Z,6.67
2022-08-08T16:47:40.025Z,6.00
2022-08-08T16:50:13.789Z,6.33
2022-08-08T16:55:04.484Z,6.00
2022-08-08T16:55:42.761Z,4.33
2022-08-08T16:58:20.525Z,6.00
2022-08-08T17:00:49.162Z,5.00
2022-08-08T17:03:25.405Z,5.33
2022-08-08T17:06:36.522Z,5.00
2022-08-08T17:08:54.756Z,4.00
2022-08-08T17:11:22.193Z,6.00
2022-08-08T17:14:01.466Z,5.67
2022-08-08T17:16:29.404Z,5.33
2022-08-08T17:18:58.387Z,4.00
2022-08-08T17:21:28.259Z,6.00
2022-08-08T17:24:01.461Z,5.67
2022-08-08T17:26:30.985Z,5.00
2022-08-08T17:29:04.506Z,6.33
2022-08-08T17:31:44.305Z,6.00
2022-08-08T17:34:49.089Z,5.67
2022-08-08T17:37:03.720Z,5.33
2022-08-08T17:40:05.067Z,3.33
2022-08-08T17:42:19.329Z,5.67
2022-08-08T17:44:50.830Z,5.67
2022-08-08T17:47:37.710Z,6.00
2022-08-08T17:50:07.138Z,5.33
2022-08-08T17:52:35.609Z,5.00
2022-08-08T17:56:04.055Z,6.00
2022-08-08T17:57:53.408Z,5.25
2022-08-08T18:00:30.176Z,4.75
2022-08-08T18:03:08.723Z,4.75
2022-08-08T18:05:48.917Z,5.50
2022-08-08T18:08:24.769Z,4.00
2022-08-08T18:11:05.729Z,4.75
2022-08-08T18:13:35.109Z,4.75
2022-08-08T18:16:11.010Z,4.25
2022-08-08T18:18:42.976Z,4.75
2022-08-08T18:21:34.712Z,4.50
2022-08-08T18:24:10.486Z,4.75
2022-08-08T18:26:46.610Z,5.33
2022-08-08T18:29:25.924Z,5.75
2022-08-08T18:31:58.617Z,5.25
2022-08-08T18:34:27.768Z,4.00
2022-08-08T18:36:55.805Z,4.75
2022-08-08T18:39:28.551Z,4.00
2022-08-08T18:42:03.188Z,5.00
2022-08-08T18:44:33.016Z,5.00
2022-08-08T18:47:03.562Z,4.75
2022-08-08T18:49:40.952Z,5.50
2022-08-08T18:52:22.873Z,5.67
2022-08-08T18:55:01.094Z,4.33
2022-08-08T18:57:41.242Z,4.67
2022-08-08T19:00:16.467Z,6.00
2022-08-08T19:02:57.050Z,5.33
2022-08-08T19:05:32.088Z,5.67
2022-08-08T19:08:09.903Z,5.33
2022-08-08T19:10:37.452Z,5.67
2022-08-08T19:13:20.673Z,5.33
2022-08-08T19:15:49.210Z,5.33
2022-08-08T19:18:33.680Z,5.67
2022-08-08T19:21:29.300Z,4.67
2022-08-08T19:23:56.113Z,5.33
2022-08-08T19:26:30.287Z,5.33
2022-08-08T19:28:58.254Z,4.67
2022-08-08T19:31:31.584Z,5.67
2022-08-08T19:34:30.260Z,5.33
2022-08-08T19:36:52.965Z,5.50
2022-08-08T19:39:22.860Z,5.67
2022-08-08T19:41:51.999Z,4.00
2022-08-08T19:44:43.123Z,6.00
2022-08-08T19:47:07.956Z,4.67
2022-08-08T19:49:38.138Z,5.00
2022-08-08T19:52:06.834Z,6.00
2022-08-08T19:54:35.377Z,5.67
2022-08-08T19:57:07.588Z,6.00
2022-08-08T19:59:35.408Z,5.33
2022-08-08T20:02:04.277Z,6.33
2022-08-08T20:04:33.226Z,4.67
2022-08-08T20:07:05.557Z,6.00
2022-08-08T20:09:56.293Z,4.67
2022-08-08T20:12:32.956Z,5.33
2022-08-08T20:15:16.760Z,5.75
2022-08-08T20:17:45.869Z,5.25
2022-08-08T20:20:16.060Z,5.67
2022-08-08T20:22:54.184Z,6.33
2022-08-08T20:25:26.398Z,6.00
2022-08-08T20:27:57.607Z,6.00
2022-08-08T20:30:52.899Z,5.67
2022-08-08T20:35:58.749Z,5.75
2022-08-08T20:38:32.203Z,4.75
2022-08-08T20:41:00.548Z,5.75
2022-08-08T20:43:44.167Z,6.00
2022-08-08T20:46:17.376Z,6.50
2022-08-08T20:48:47.628Z,6.00
2022-08-08T20:51:15.066Z,6.25
2022-08-08T20:54:00.176Z,5.67
2022-08-08T20:56:35.871Z,5.50
2022-08-08T20:59:18.607Z,5.25
2022-08-08T21:02:07.824Z,6.00
2022-08-08T21:04:36.911Z,6.75
2022-08-08T21:07:08.379Z,6.50
2022-08-08T21:10:02.217Z,4.67
2022-08-08T21:12:35.608Z,6.00
2022-08-08T21:15:06.723Z,6.00
2022-08-08T21:17:34.997Z,6.00
2022-08-08T21:20:03.894Z,6.00
2022-08-08T21:22:31.463Z,6.50
2022-08-08T21:25:00.204Z,6.67
2022-08-08T21:28:06.363Z,5.75
2022-08-08T21:30:21.668Z,6.75
2022-08-08T21:32:50.962Z,7.00
2022-08-08T21:36:14.288Z,7.25
2022-08-08T21:38:17.176Z,5.50
2022-08-08T21:40:55.618Z,6.00
2022-08-08T21:43:25.641Z,5.75
2022-08-08T21:48:07.512Z,7.00
2022-08-08T21:48:51.397Z,5.75
2022-08-08T21:54:17.857Z,6.25
2022-08-08T21:54:32.857Z,6.50
2022-08-08T21:56:57.315Z,5.25
2022-08-08T21:59:43.897Z,6.50
2022-08-08T22:02:16.058Z,6.50
2022-08-08T22:04:46.754Z,6.50
2022-08-08T22:07:16.702Z,6.00
2022-08-08T22:09:46.426Z,6.00
2022-08-08T22:12:16.952Z,6.75
2022-08-08T22:14:44.935Z,5.50
2022-08-08T22:17:18.293Z,6.25
2022-08-08T22:20:11.930Z,5.00
2022-08-08T22:22:38.059Z,6.67
2022-08-08T22:25:12.124Z,6.50
2022-08-08T22:28:03.821Z,5.75
2022-08-08T22:30:35.904Z,7.00
2022-08-08T22:33:03.394Z,7.75
2022-08-08T22:36:04.328Z,6.00
2022-08-08T22:38:39.214Z,7.50
2022-08-08T22:41:16.336Z,8.00
2022-08-08T22:44:05.423Z,6.75
2022-08-08T22:46:34.090Z,7.00
2022-08-08T22:49:01.541Z,7.33
2022-08-08T22:51:29.387Z,8.00
2022-08-08T22:54:33.028Z,6.25
2022-08-08T22:56:50.241Z,6.33
2022-08-08T22:59:19.145Z,7.25
2022-08-08T23:02:02.012Z,6.67
2022-08-08T23:04:32.324Z,6.33
2022-08-08T23:07:02.812Z,7.00
2022-08-08T23:09:31.193Z,5.67
2022-08-08T23:12:28.935Z,7.00
2022-08-08T23:14:59.911Z,6.00
2022-08-08T23:17:54.081Z,7.00
2022-08-08T23:20:27.320Z,6.00
2022-08-08T23:22:56.672Z,5.00
2022-08-08T23:25:24.262Z,7.00
2022-08-08T23:27:54.334Z,7.00
2022-08-08T23:30:23.775Z,6.75
2022-08-08T23:32:51.467Z,6.00
2022-08-08T23:35:19.073Z,6.00
2022-08-08T23:38:01.232Z,6.00
2022-08-08T23:40:30.803Z,7.00
2022-08-08T23:42:58.278Z,6.75
2022-08-08T23:49:03.890Z,6.75
2022-08-08T23:49:08.147Z,6.25
2022-08-08T23:51:12.542Z,4.00
2022-08-08T23:54:05.759Z,6.25
2022-08-08T23:56:44.038Z,4.75
2022-08-08T23:59:17.035Z,6.00
